This is the latest recevied weather packets stored in our database for station/object OH2HCY-3. If no packets are shown the sender has not sent any weather packets the latest 10 day(s).
| Time | Temp. | Humidity | Pressure | Rain* | Wind** | Luminosity | Snow |
|---|---|---|---|---|---|---|---|
| 1787682187 | 11.67° C | 80% | 1021.3 hPa | - | - | - | - |
| 1787681204 | 12.22° C | 77% | 1021 hPa | - | - | - | - |
| 1787680137 | 13.33° C | 73% | 1020.9 hPa | - | - | - | - |
| 1787679164 | 13.89° C | 70% | 1020.7 hPa | - | - | - | - |
| 1787678190 | 15° C | 66% | 1020.6 hPa | - | - | - | - |
| 1787678187 | 15° C | 66% | 1020.6 hPa | - | - | - | - |
| 1787677072 | 16.11° C | 59% | 1020.5 hPa | - | - | - | - |
| 1787676022 | 17.78° C | 55% | 1020.6 hPa | - | - | - | - |
| 1787674932 | 18.89° C | 49% | 1020.5 hPa | - | - | - | - |
| 1787673767 | 19.44° C | 42% | 1020.5 hPa | - | - | - | - |
| 1787672642 | 20° C | 46% | 1020.5 hPa | - | - | - | - |
| 1787671612 | 20° C | 44% | 1020.3 hPa | - | - | - | - |
| 1787670586 | 20° C | 42% | 1020.3 hPa | - | - | - | - |
| 1787669457 | 20° C | 42% | 1020.2 hPa | - | - | - | - |
| 1787668418 | 19.44° C | 41% | 1020.1 hPa | - | - | - | - |
| 1787667447 | 20° C | 40% | 1020.1 hPa | - | - | - | - |
| 1787666302 | 19.44° C | 42% | 1020 hPa | - | - | - | - |
| 1787665292 | 19.44° C | 42% | 1020 hPa | - | - | - | - |
| 1787664329 | 18.89° C | 42% | 1020.1 hPa | - | - | - | - |
| 1787663361 | 19.44° C | 41% | 1020 hPa | - | - | - | - |
| 1787662382 | 18.89° C | 41% | 1019.9 hPa | - | - | - | - |
| 1787661357 | 19.44° C | 42% | 1019.9 hPa | - | - | - | - |
| 1787660327 | 19.44° C | 44% | 1019.8 hPa | - | - | - | - |
| 1787659135 | 18.89° C | 43% | 1019.7 hPa | - | - | - | - |
| 1787658032 | 18.33° C | 44% | 1019.8 hPa | - | - | - | - |
* Rain since midnight (hover to see other rain measurements)
** Current wind speed in m/s (hover to see current wind gust speed)